createdAt,value
2023-05-25T00:05:10.420Z,92.13
2023-05-25T00:15:10.720Z,92.43
2023-05-25T00:25:10.688Z,92.64
2023-05-25T00:35:10.895Z,93.25
2023-05-25T00:45:11.184Z,94.07
2023-05-25T00:55:11.403Z,94.11
2023-05-25T01:05:11.609Z,93.70
2023-05-25T01:15:11.861Z,94.46
2023-05-25T01:25:12.001Z,95.13
2023-05-25T01:35:12.232Z,96.71
2023-05-25T01:45:12.469Z,96.61
2023-05-25T01:55:12.686Z,95.95
2023-05-25T02:05:12.881Z,95.90
2023-05-25T02:15:13.091Z,95.60
2023-05-25T02:25:13.280Z,95.54
2023-05-25T02:35:13.502Z,94.93
2023-05-25T02:45:13.778Z,94.87
2023-05-25T02:55:13.960Z,95.54
2023-05-25T03:05:14.178Z,95.18
2023-05-25T03:15:14.366Z,95.95
2023-05-25T03:25:14.574Z,95.95
2023-05-25T03:35:14.755Z,95.95
2023-05-25T03:45:14.910Z,96.77
2023-05-25T03:55:15.098Z,96.56
2023-05-25T04:05:15.296Z,96.36
2023-05-25T04:15:15.444Z,96.87
2023-05-25T04:25:15.621Z,96.81
2023-05-25T04:35:15.796Z,96.61
2023-05-25T04:45:15.972Z,96.10
2023-05-25T04:55:16.127Z,96.30
2023-05-25T05:05:16.289Z,96.67
2023-05-25T05:15:16.446Z,96.67
2023-05-25T05:25:16.621Z,96.72
2023-05-25T05:35:16.795Z,95.80
2023-05-25T05:45:16.980Z,94.98
2023-05-25T05:55:17.172Z,94.38
2023-05-25T06:05:17.424Z,92.90
2023-05-25T06:15:17.580Z,91.28
2023-05-25T06:25:17.737Z,88.10
2023-05-25T06:35:17.886Z,86.77
2023-05-25T06:45:18.060Z,86.27
2023-05-25T06:55:18.224Z,85.86
2023-05-25T07:05:18.577Z,87.84
2023-05-25T07:15:18.583Z,83.45
2023-05-25T07:25:18.746Z,83.54
2023-05-25T07:35:18.912Z,83.79
2023-05-25T07:45:19.068Z,81.74
2023-05-25T07:55:19.334Z,80.88
2023-05-25T08:05:19.518Z,78.08
2023-05-25T08:15:19.685Z,76.82
2023-05-25T08:25:19.947Z,74.87
2023-05-25T08:35:20.126Z,74.80
2023-05-25T08:45:33.306Z,74.09
2023-05-25T08:55:21.508Z,73.18
2023-05-25T09:05:20.685Z,71.10
2023-05-25T09:15:20.837Z,71.53
2023-05-25T09:25:21.018Z,72.27
2023-05-25T09:35:21.183Z,66.03
2023-05-25T09:45:21.418Z,66.67
2023-05-25T09:55:21.574Z,66.14
2023-05-25T10:05:21.794Z,65.81
2023-05-25T10:15:21.996Z,64.92
2023-05-25T10:25:22.172Z,64.15
2023-05-25T10:35:22.332Z,66.28
2023-05-25T10:45:22.524Z,63.32
2023-05-25T10:55:22.693Z,63.83
2023-05-25T11:05:22.864Z,58.88
2023-05-25T11:15:23.139Z,62.31
2023-05-25T11:25:23.139Z,61.87
2023-05-25T11:35:23.412Z,62.64
2023-05-25T11:45:23.604Z,62.24
2023-05-25T11:55:23.780Z,60.76
2023-05-25T12:05:24.039Z,58.76
2023-05-25T12:15:26.335Z,59.61
2023-05-25T12:25:24.156Z,59.23
2023-05-25T12:35:24.316Z,57.99
2023-05-25T12:45:26.782Z,59.15
2023-05-25T12:55:24.766Z,57.89
2023-05-25T13:05:25.256Z,57.99
2023-05-25T13:15:25.107Z,58.56
2023-05-25T13:25:25.307Z,57.34
2023-05-25T13:35:25.468Z,58.09
2023-05-25T13:45:25.689Z,62.50
2023-05-25T13:55:25.868Z,60.39
2023-05-25T14:05:26.053Z,58.20
2023-05-25T14:15:26.240Z,59.53
2023-05-25T14:25:26.389Z,59.04
2023-05-25T14:35:26.581Z,60.33
2023-05-25T14:45:26.783Z,60.24
2023-05-25T14:55:26.937Z,64.69
2023-05-25T15:05:27.149Z,59.52
2023-05-25T15:15:27.326Z,59.62
2023-05-25T15:35:27.601Z,62.40
2023-05-25T15:45:27.793Z,64.46
2023-05-25T15:55:27.970Z,65.49
2023-05-25T16:05:28.143Z,66.79
2023-05-25T16:15:28.333Z,66.39
2023-05-25T16:25:28.523Z,66.82
2023-05-25T16:35:28.692Z,68.36
2023-05-25T16:45:28.855Z,66.75
2023-05-25T16:55:29.200Z,66.69
2023-05-25T17:05:29.197Z,67.69
2023-05-25T17:15:29.369Z,67.82
2023-05-25T17:25:29.598Z,69.56
2023-05-25T17:35:29.790Z,66.75
2023-05-25T17:45:30.030Z,67.05
2023-05-25T17:55:30.346Z,69.42
2023-05-25T18:05:30.551Z,66.35
2023-05-25T18:15:30.940Z,67.96
2023-05-25T18:25:31.177Z,69.29
2023-05-25T18:35:31.102Z,68.59
2023-05-25T18:45:31.289Z,69.59
2023-05-25T18:55:31.458Z,69.22
2023-05-25T19:05:31.778Z,71.56
2023-05-25T19:15:31.815Z,70.53
2023-05-25T19:25:32.101Z,72.94
2023-05-25T19:35:32.397Z,71.94
2023-05-25T19:45:32.488Z,72.57
2023-05-25T19:55:32.707Z,73.78
2023-05-25T20:05:32.871Z,73.31
2023-05-25T20:15:32.922Z,73.04
2023-05-25T20:25:33.021Z,74.99
2023-05-25T20:35:33.234Z,76.43
2023-05-25T20:45:33.612Z,76.95
2023-05-25T20:55:33.785Z,77.66
2023-05-25T21:05:33.988Z,77.15
2023-05-25T21:15:34.033Z,77.28
2023-05-25T21:25:34.266Z,78.09
2023-05-25T21:35:34.518Z,78.23
2023-05-25T21:45:34.934Z,78.03
2023-05-25T21:55:35.156Z,78.43
2023-05-25T22:05:35.179Z,79.85
2023-05-25T22:15:35.408Z,82.89
2023-05-25T22:25:35.677Z,85.19
2023-05-25T22:35:35.989Z,85.90
2023-05-25T22:45:36.176Z,85.19
2023-05-25T22:55:36.336Z,85.39
2023-05-25T23:05:36.393Z,85.54
2023-05-25T23:15:36.659Z,86.19
2023-05-25T23:25:36.731Z,86.08
2023-05-25T23:35:36.971Z,87.04
2023-05-25T23:45:37.434Z,87.38
2023-05-25T23:55:37.532Z,87.69
